sensor_id;sensor_type;location;lat;lon;timestamp;P1;durP1;ratioP1;P2;durP2;ratioP2
6651;SDS011;3362;50.892;10.692;2024-03-17T00:01:32;0.93;;;0.70;;
6651;SDS011;3362;50.892;10.692;2024-03-17T00:03:57;0.30;;;0.07;;
6651;SDS011;3362;50.892;10.692;2024-03-17T00:06:24;0.60;;;0.52;;
6651;SDS011;3362;50.892;10.692;2024-03-17T00:08:49;0.53;;;0.53;;
6651;SDS011;3362;50.892;10.692;2024-03-17T00:11:15;0.30;;;0.17;;
6651;SDS011;3362;50.892;10.692;2024-03-17T00:13:40;0.70;;;0.70;;
6651;SDS011;3362;50.892;10.692;2024-03-17T00:16:06;2.28;;;0.50;;
6651;SDS011;3362;50.892;10.692;2024-03-17T00:18:32;0.80;;;0.40;;
6651;SDS011;3362;50.892;10.692;2024-03-17T00:20:58;0.47;;;0.30;;
6651;SDS011;3362;50.892;10.692;2024-03-17T00:23:24;1.05;;;0.77;;
6651;SDS011;3362;50.892;10.692;2024-03-17T00:25:50;0.30;;;0.20;;
6651;SDS011;3362;50.892;10.692;2024-03-17T00:28:16;0.83;;;0.70;;
6651;SDS011;3362;50.892;10.692;2024-03-17T00:30:42;0.75;;;0.50;;
6651;SDS011;3362;50.892;10.692;2024-03-17T00:33:07;0.30;;;0.20;;
6651;SDS011;3362;50.892;10.692;2024-03-17T00:35:35;0.93;;;0.52;;
6651;SDS011;3362;50.892;10.692;2024-03-17T00:38:00;1.70;;;0.50;;
6651;SDS011;3362;50.892;10.692;2024-03-17T00:40:28;0.30;;;0.20;;
6651;SDS011;3362;50.892;10.692;2024-03-17T00:42:53;0.30;;;0.30;;
6651;SDS011;3362;50.892;10.692;2024-03-17T00:45:20;1.27;;;0.95;;
6651;SDS011;3362;50.892;10.692;2024-03-17T00:47:45;0.40;;;0.37;;
6651;SDS011;3362;50.892;10.692;2024-03-17T00:50:11;0.30;;;0.15;;
6651;SDS011;3362;50.892;10.692;2024-03-17T00:52:36;3.67;;;1.07;;
6651;SDS011;3362;50.892;10.692;2024-03-17T00:55:03;0.60;;;0.40;;
6651;SDS011;3362;50.892;10.692;2024-03-17T00:57:28;0.30;;;0.22;;
6651;SDS011;3362;50.892;10.692;2024-03-17T00:59:54;1.27;;;1.17;;
6651;SDS011;3362;50.892;10.692;2024-03-17T01:02:19;2.40;;;0.50;;
6651;SDS011;3362;50.892;10.692;2024-03-17T01:07:11;0.30;;;0.15;;
6651;SDS011;3362;50.892;10.692;2024-03-17T01:09:38;0.73;;;0.63;;
6651;SDS011;3362;50.892;10.692;2024-03-17T01:12:03;1.70;;;0.70;;
6651;SDS011;3362;50.892;10.692;2024-03-17T01:19:22;1.33;;;0.65;;
6651;SDS011;3362;50.892;10.692;2024-03-17T01:21:47;0.30;;;0.13;;
6651;SDS011;3362;50.892;10.692;2024-03-17T01:24:13;0.50;;;0.50;;
6651;SDS011;3362;50.892;10.692;2024-03-17T01:26:39;0.50;;;0.33;;
6651;SDS011;3362;50.892;10.692;2024-03-17T01:29:05;0.70;;;0.60;;
6651;SDS011;3362;50.892;10.692;2024-03-17T01:31:30;0.50;;;0.47;;
6651;SDS011;3362;50.892;10.692;2024-03-17T01:33:56;0.40;;;0.28;;
6651;SDS011;3362;50.892;10.692;2024-03-17T01:36:21;1.13;;;1.03;;
6651;SDS011;3362;50.892;10.692;2024-03-17T01:38:47;0.30;;;0.20;;
6651;SDS011;3362;50.892;10.692;2024-03-17T01:41:13;0.40;;;0.40;;
6651;SDS011;3362;50.892;10.692;2024-03-17T01:43:39;0.40;;;0.40;;
6651;SDS011;3362;50.892;10.692;2024-03-17T01:46:05;1.02;;;0.70;;
6651;SDS011;3362;50.892;10.692;2024-03-17T01:48:31;0.30;;;0.10;;
6651;SDS011;3362;50.892;10.692;2024-03-17T01:50:56;0.43;;;0.43;;
6651;SDS011;3362;50.892;10.692;2024-03-17T01:55:50;0.30;;;0.30;;
6651;SDS011;3362;50.892;10.692;2024-03-17T01:58:16;0.50;;;0.50;;
6651;SDS011;3362;50.892;10.692;2024-03-17T02:00:42;2.60;;;0.52;;
6651;SDS011;3362;50.892;10.692;2024-03-17T02:03:08;0.33;;;0.30;;
6651;SDS011;3362;50.892;10.692;2024-03-17T02:05:35;1.05;;;0.98;;
6651;SDS011;3362;50.892;10.692;2024-03-17T02:08:02;4.50;;;0.35;;
6651;SDS011;3362;50.892;10.692;2024-03-17T02:10:28;0.50;;;0.50;;
6651;SDS011;3362;50.892;10.692;2024-03-17T02:12:53;1.73;;;0.70;;
6651;SDS011;3362;50.892;10.692;2024-03-17T02:15:20;0.47;;;0.43;;
6651;SDS011;3362;50.892;10.692;2024-03-17T02:17:45;1.17;;;0.40;;
6651;SDS011;3362;50.892;10.692;2024-03-17T02:20:11;0.70;;;0.50;;
6651;SDS011;3362;50.892;10.692;2024-03-17T02:22:37;0.50;;;0.30;;
6651;SDS011;3362;50.892;10.692;2024-03-17T02:25:03;0.93;;;0.50;;
6651;SDS011;3362;50.892;10.692;2024-03-17T02:27:29;4.35;;;1.90;;
6651;SDS011;3362;50.892;10.692;2024-03-17T02:29:55;1.10;;;0.95;;
6651;SDS011;3362;50.892;10.692;2024-03-17T02:32:20;1.83;;;1.33;;
6651;SDS011;3362;50.892;10.692;2024-03-17T02:34:47;0.77;;;0.70;;
6651;SDS011;3362;50.892;10.692;2024-03-17T02:37:12;3.40;;;1.17;;
6651;SDS011;3362;50.892;10.692;2024-03-17T02:39:39;3.30;;;1.35;;
6651;SDS011;3362;50.892;10.692;2024-03-17T02:42:05;1.17;;;1.07;;
6651;SDS011;3362;50.892;10.692;2024-03-17T02:44:31;0.35;;;0.28;;
6651;SDS011;3362;50.892;10.692;2024-03-17T02:49:27;0.52;;;0.52;;
6651;SDS011;3362;50.892;10.692;2024-03-17T02:52:00;0.30;;;0.28;;
6651;SDS011;3362;50.892;10.692;2024-03-17T02:54:26;0.75;;;0.55;;
6651;SDS011;3362;50.892;10.692;2024-03-17T02:56:52;1.95;;;1.27;;
6651;SDS011;3362;50.892;10.692;2024-03-17T02:59:19;0.35;;;0.20;;
6651;SDS011;3362;50.892;10.692;2024-03-17T03:01:45;1.40;;;1.30;;
6651;SDS011;3362;50.892;10.692;2024-03-17T03:04:11;1.35;;;0.90;;
6651;SDS011;3362;50.892;10.692;2024-03-17T03:06:37;0.55;;;0.55;;
6651;SDS011;3362;50.892;10.692;2024-03-17T03:09:04;3.22;;;0.75;;
6651;SDS011;3362;50.892;10.692;2024-03-17T03:11:37;1.00;;;1.00;;
6651;SDS011;3362;50.892;10.692;2024-03-17T03:14:03;1.25;;;0.70;;
6651;SDS011;3362;50.892;10.692;2024-03-17T03:16:29;3.78;;;0.93;;
6651;SDS011;3362;50.892;10.692;2024-03-17T03:18:56;1.95;;;1.25;;
6651;SDS011;3362;50.892;10.692;2024-03-17T03:21:22;0.75;;;0.70;;
6651;SDS011;3362;50.892;10.692;2024-03-17T03:23:48;0.60;;;0.57;;
6651;SDS011;3362;50.892;10.692;2024-03-17T03:26:14;1.63;;;1.13;;
6651;SDS011;3362;50.892;10.692;2024-03-17T03:28:40;1.00;;;1.00;;
6651;SDS011;3362;50.892;10.692;2024-03-17T03:31:10;0.57;;;0.57;;
6651;SDS011;3362;50.892;10.692;2024-03-17T03:33:38;0.50;;;0.30;;
6651;SDS011;3362;50.892;10.692;2024-03-17T03:36:10;0.80;;;0.50;;
6651;SDS011;3362;50.892;10.692;2024-03-17T03:38:37;0.75;;;0.75;;
6651;SDS011;3362;50.892;10.692;2024-03-17T03:41:13;1.15;;;1.15;;
6651;SDS011;3362;50.892;10.692;2024-03-17T03:43:40;1.08;;;0.82;;
6651;SDS011;3362;50.892;10.692;2024-03-17T03:46:06;1.95;;;1.00;;
6651;SDS011;3362;50.892;10.692;2024-03-17T03:48:33;1.90;;;1.10;;
6651;SDS011;3362;50.892;10.692;2024-03-17T03:51:03;0.55;;;0.55;;
6651;SDS011;3362;50.892;10.692;2024-03-17T03:53:31;1.02;;;1.02;;
6651;SDS011;3362;50.892;10.692;2024-03-17T03:55:57;0.88;;;0.30;;
6651;SDS011;3362;50.892;10.692;2024-03-17T03:58:24;0.60;;;0.55;;
6651;SDS011;3362;50.892;10.692;2024-03-17T04:00:50;0.47;;;0.47;;
6651;SDS011;3362;50.892;10.692;2024-03-17T04:03:16;0.75;;;0.75;;
6651;SDS011;3362;50.892;10.692;2024-03-17T04:05:42;2.30;;;0.75;;
6651;SDS011;3362;50.892;10.692;2024-03-17T04:08:08;1.27;;;0.77;;
6651;SDS011;3362;50.892;10.692;2024-03-17T04:10:35;2.70;;;1.98;;
6651;SDS011;3362;50.892;10.692;2024-03-17T04:13:01;0.60;;;0.60;;
6651;SDS011;3362;50.892;10.692;2024-03-17T04:15:27;2.63;;;1.27;;
6651;SDS011;3362;50.892;10.692;2024-03-17T04:17:54;2.70;;;1.58;;
6651;SDS011;3362;50.892;10.692;2024-03-17T04:20:20;1.55;;;1.02;;
6651;SDS011;3362;50.892;10.692;2024-03-17T04:22:46;0.75;;;0.60;;
6651;SDS011;3362;50.892;10.692;2024-03-17T04:30:05;0.90;;;0.57;;
6651;SDS011;3362;50.892;10.692;2024-03-17T04:34:57;0.50;;;0.50;;
6651;SDS011;3362;50.892;10.692;2024-03-17T04:37:23;1.20;;;0.95;;
6651;SDS011;3362;50.892;10.692;2024-03-17T04:39:50;0.35;;;0.25;;
6651;SDS011;3362;50.892;10.692;2024-03-17T04:42:16;3.03;;;0.93;;
6651;SDS011;3362;50.892;10.692;2024-03-17T04:44:44;0.63;;;0.63;;
6651;SDS011;3362;50.892;10.692;2024-03-17T04:47:11;1.52;;;0.98;;
6651;SDS011;3362;50.892;10.692;2024-03-17T04:52:03;6.50;;;1.05;;
6651;SDS011;3362;50.892;10.692;2024-03-17T04:54:33;0.60;;;0.60;;
6651;SDS011;3362;50.892;10.692;2024-03-17T04:56:59;1.67;;;0.93;;
6651;SDS011;3362;50.892;10.692;2024-03-17T04:59:25;1.88;;;0.70;;
6651;SDS011;3362;50.892;10.692;2024-03-17T05:01:55;1.65;;;0.90;;
6651;SDS011;3362;50.892;10.692;2024-03-17T05:04:21;2.58;;;0.90;;
6651;SDS011;3362;50.892;10.692;2024-03-17T05:06:50;1.70;;;1.33;;
6651;SDS011;3362;50.892;10.692;2024-03-17T05:09:16;0.45;;;0.35;;
6651;SDS011;3362;50.892;10.692;2024-03-17T05:11:43;0.80;;;0.80;;
6651;SDS011;3362;50.892;10.692;2024-03-17T05:14:09;2.15;;;1.17;;
6651;SDS011;3362;50.892;10.692;2024-03-17T05:16:35;0.70;;;0.70;;
6651;SDS011;3362;50.892;10.692;2024-03-17T05:19:01;1.13;;;0.52;;
6651;SDS011;3362;50.892;10.692;2024-03-17T05:21:28;1.13;;;1.05;;
6651;SDS011;3362;50.892;10.692;2024-03-17T05:23:56;1.10;;;0.77;;
6651;SDS011;3362;50.892;10.692;2024-03-17T05:26:22;0.38;;;0.32;;
6651;SDS011;3362;50.892;10.692;2024-03-17T05:28:49;1.38;;;1.02;;
6651;SDS011;3362;50.892;10.692;2024-03-17T05:31:15;1.85;;;1.55;;
6651;SDS011;3362;50.892;10.692;2024-03-17T05:33:43;2.28;;;1.30;;
6651;SDS011;3362;50.892;10.692;2024-03-17T05:36:09;0.80;;;0.60;;
6651;SDS011;3362;50.892;10.692;2024-03-17T05:38:35;0.60;;;0.60;;
6651;SDS011;3362;50.892;10.692;2024-03-17T05:41:05;0.60;;;0.60;;
6651;SDS011;3362;50.892;10.692;2024-03-17T05:43:32;1.33;;;0.68;;
6651;SDS011;3362;50.892;10.692;2024-03-17T05:46:00;0.88;;;0.68;;
6651;SDS011;3362;50.892;10.692;2024-03-17T05:55:45;1.65;;;0.70;;
6651;SDS011;3362;50.892;10.692;2024-03-17T05:58:11;0.95;;;0.77;;
6651;SDS011;3362;50.892;10.692;2024-03-17T06:00:38;3.10;;;0.65;;
6651;SDS011;3362;50.892;10.692;2024-03-17T06:03:04;0.70;;;0.70;;
6651;SDS011;3362;50.892;10.692;2024-03-17T06:05:32;1.00;;;0.45;;
6651;SDS011;3362;50.892;10.692;2024-03-17T06:07:59;0.60;;;0.60;;
6651;SDS011;3362;50.892;10.692;2024-03-17T06:10:25;0.60;;;0.60;;
6651;SDS011;3362;50.892;10.692;2024-03-17T06:15:18;1.95;;;0.68;;
6651;SDS011;3362;50.892;10.692;2024-03-17T06:17:45;3.17;;;1.58;;
6651;SDS011;3362;50.892;10.692;2024-03-17T06:20:12;0.95;;;0.82;;
6651;SDS011;3362;50.892;10.692;2024-03-17T06:22:39;0.73;;;0.60;;
6651;SDS011;3362;50.892;10.692;2024-03-17T06:25:08;1.13;;;0.95;;
6651;SDS011;3362;50.892;10.692;2024-03-17T06:27:34;0.80;;;0.80;;
6651;SDS011;3362;50.892;10.692;2024-03-17T06:30:01;0.32;;;0.32;;
6651;SDS011;3362;50.892;10.692;2024-03-17T06:32:29;0.35;;;0.32;;
6651;SDS011;3362;50.892;10.692;2024-03-17T06:34:55;1.70;;;1.38;;
6651;SDS011;3362;50.892;10.692;2024-03-17T06:37:21;2.00;;;1.83;;
6651;SDS011;3362;50.892;10.692;2024-03-17T06:42:14;0.52;;;0.52;;
6651;SDS011;3362;50.892;10.692;2024-03-17T06:44:40;2.13;;;1.40;;
6651;SDS011;3362;50.892;10.692;2024-03-17T06:47:06;1.58;;;1.45;;
6651;SDS011;3362;50.892;10.692;2024-03-17T06:49:33;1.20;;;1.10;;
6651;SDS011;3362;50.892;10.692;2024-03-17T06:51:59;2.10;;;0.82;;
6651;SDS011;3362;50.892;10.692;2024-03-17T06:54:26;1.35;;;1.17;;
6651;SDS011;3362;50.892;10.692;2024-03-17T06:56:52;1.35;;;0.77;;
6651;SDS011;3362;50.892;10.692;2024-03-17T06:59:18;1.45;;;1.25;;
6651;SDS011;3362;50.892;10.692;2024-03-17T07:01:45;4.40;;;1.80;;
6651;SDS011;3362;50.892;10.692;2024-03-17T07:04:11;9.50;;;1.27;;
6651;SDS011;3362;50.892;10.692;2024-03-17T07:06:38;1.90;;;1.42;;
6651;SDS011;3362;50.892;10.692;2024-03-17T07:09:04;1.05;;;1.05;;
6651;SDS011;3362;50.892;10.692;2024-03-17T07:11:30;2.65;;;1.70;;
6651;SDS011;3362;50.892;10.692;2024-03-17T07:13:56;2.50;;;1.75;;
6651;SDS011;3362;50.892;10.692;2024-03-17T07:16:23;3.67;;;1.90;;
6651;SDS011;3362;50.892;10.692;2024-03-17T07:18:50;1.85;;;1.63;;
6651;SDS011;3362;50.892;10.692;2024-03-17T07:21:17;3.40;;;1.00;;
6651;SDS011;3362;50.892;10.692;2024-03-17T07:23:44;1.23;;;0.88;;
6651;SDS011;3362;50.892;10.692;2024-03-17T07:26:10;1.25;;;0.50;;
6651;SDS011;3362;50.892;10.692;2024-03-17T07:28:36;0.60;;;0.60;;
6651;SDS011;3362;50.892;10.692;2024-03-17T07:31:05;1.80;;;1.58;;
6651;SDS011;3362;50.892;10.692;2024-03-17T07:33:33;0.90;;;0.90;;
6651;SDS011;3362;50.892;10.692;2024-03-17T07:35:59;2.50;;;2.30;;
6651;SDS011;3362;50.892;10.692;2024-03-17T07:38:26;2.45;;;1.13;;
6651;SDS011;3362;50.892;10.692;2024-03-17T07:41:00;3.60;;;1.40;;
6651;SDS011;3362;50.892;10.692;2024-03-17T07:43:26;1.10;;;0.90;;
6651;SDS011;3362;50.892;10.692;2024-03-17T07:45:59;1.70;;;1.10;;
6651;SDS011;3362;50.892;10.692;2024-03-17T07:48:25;2.00;;;1.88;;
6651;SDS011;3362;50.892;10.692;2024-03-17T07:50:59;0.75;;;0.75;;
6651;SDS011;3362;50.892;10.692;2024-03-17T07:53:27;2.50;;;1.88;;
6651;SDS011;3362;50.892;10.692;2024-03-17T07:55:56;1.92;;;1.75;;
6651;SDS011;3362;50.892;10.692;2024-03-17T07:58:23;1.88;;;1.30;;
6651;SDS011;3362;50.892;10.692;2024-03-17T08:00:50;3.83;;;1.90;;
6651;SDS011;3362;50.892;10.692;2024-03-17T08:03:16;1.25;;;1.05;;
6651;SDS011;3362;50.892;10.692;2024-03-17T08:05:42;2.45;;;2.25;;
6651;SDS011;3362;50.892;10.692;2024-03-17T08:08:08;3.33;;;1.98;;
6651;SDS011;3362;50.892;10.692;2024-03-17T08:10:37;2.10;;;1.70;;
6651;SDS011;3362;50.892;10.692;2024-03-17T08:13:03;6.35;;;2.05;;
6651;SDS011;3362;50.892;10.692;2024-03-17T08:15:30;2.05;;;1.83;;
6651;SDS011;3362;50.892;10.692;2024-03-17T08:17:56;5.15;;;2.15;;
6651;SDS011;3362;50.892;10.692;2024-03-17T08:20:22;4.45;;;3.33;;
6651;SDS011;3362;50.892;10.692;2024-03-17T08:22:48;2.92;;;2.72;;
6651;SDS011;3362;50.892;10.692;2024-03-17T08:25:14;2.58;;;1.98;;
6651;SDS011;3362;50.892;10.692;2024-03-17T08:27:41;5.13;;;2.40;;
6651;SDS011;3362;50.892;10.692;2024-03-17T08:30:08;2.90;;;1.92;;
6651;SDS011;3362;50.892;10.692;2024-03-17T08:32:35;1.88;;;1.65;;
6651;SDS011;3362;50.892;10.692;2024-03-17T08:35:01;3.53;;;2.40;;
6651;SDS011;3362;50.892;10.692;2024-03-17T08:37:28;2.83;;;1.95;;
6651;SDS011;3362;50.892;10.692;2024-03-17T08:39:54;2.33;;;1.77;;
6651;SDS011;3362;50.892;10.692;2024-03-17T08:42:20;3.10;;;1.58;;
6651;SDS011;3362;50.892;10.692;2024-03-17T08:44:46;5.60;;;3.40;;
6651;SDS011;3362;50.892;10.692;2024-03-17T08:47:12;4.30;;;2.72;;
6651;SDS011;3362;50.892;10.692;2024-03-17T08:49:38;2.05;;;1.85;;
6651;SDS011;3362;50.892;10.692;2024-03-17T08:52:05;2.92;;;1.45;;
6651;SDS011;3362;50.892;10.692;2024-03-17T08:54:31;2.92;;;2.25;;
6651;SDS011;3362;50.892;10.692;2024-03-17T08:56:57;3.83;;;3.22;;
6651;SDS011;3362;50.892;10.692;2024-03-17T08:59:23;3.47;;;3.17;;
6651;SDS011;3362;50.892;10.692;2024-03-17T09:01:49;4.32;;;2.88;;
6651;SDS011;3362;50.892;10.692;2024-03-17T09:04:15;2.47;;;2.17;;
6651;SDS011;3362;50.892;10.692;2024-03-17T09:06:41;3.00;;;2.72;;
6651;SDS011;3362;50.892;10.692;2024-03-17T09:09:07;3.08;;;2.67;;
6651;SDS011;3362;50.892;10.692;2024-03-17T09:11:34;3.33;;;2.20;;
6651;SDS011;3362;50.892;10.692;2024-03-17T09:14:00;5.43;;;3.30;;
6651;SDS011;3362;50.892;10.692;2024-03-17T09:16:26;3.13;;;1.83;;
6651;SDS011;3362;50.892;10.692;2024-03-17T09:18:55;3.40;;;2.85;;
6651;SDS011;3362;50.892;10.692;2024-03-17T09:21:21;2.50;;;2.25;;
6651;SDS011;3362;50.892;10.692;2024-03-17T09:23:48;4.20;;;2.20;;
6651;SDS011;3362;50.892;10.692;2024-03-17T09:28:42;3.72;;;2.47;;
6651;SDS011;3362;50.892;10.692;2024-03-17T09:31:08;2.47;;;2.28;;
6651;SDS011;3362;50.892;10.692;2024-03-17T09:33:36;2.58;;;2.13;;
6651;SDS011;3362;50.892;10.692;2024-03-17T09:36:03;4.50;;;3.78;;
6651;SDS011;3362;50.892;10.692;2024-03-17T09:38:31;6.45;;;3.22;;
6651;SDS011;3362;50.892;10.692;2024-03-17T09:40:57;3.67;;;2.20;;
6651;SDS011;3362;50.892;10.692;2024-03-17T09:43:26;4.97;;;3.50;;
6651;SDS011;3362;50.892;10.692;2024-03-17T09:45:52;2.47;;;2.28;;
6651;SDS011;3362;50.892;10.692;2024-03-17T09:48:22;7.30;;;2.28;;
6651;SDS011;3362;50.892;10.692;2024-03-17T09:50:52;4.57;;;2.10;;
6651;SDS011;3362;50.892;10.692;2024-03-17T09:53:28;5.78;;;4.25;;
6651;SDS011;3362;50.892;10.692;2024-03-17T09:56:14;4.72;;;2.65;;
6651;SDS011;3362;50.892;10.692;2024-03-17T09:58:41;2.55;;;2.35;;
6651;SDS011;3362;50.892;10.692;2024-03-17T10:01:08;2.80;;;2.00;;
6651;SDS011;3362;50.892;10.692;2024-03-17T10:03:47;2.78;;;2.53;;
6651;SDS011;3362;50.892;10.692;2024-03-17T10:06:16;2.13;;;1.95;;
6651;SDS011;3362;50.892;10.692;2024-03-17T10:08:49;3.17;;;2.33;;
6651;SDS011;3362;50.892;10.692;2024-03-17T10:11:20;5.57;;;3.33;;
6651;SDS011;3362;50.892;10.692;2024-03-17T10:13:58;5.60;;;2.50;;
6651;SDS011;3362;50.892;10.692;2024-03-17T10:16:25;2.03;;;1.70;;
6651;SDS011;3362;50.892;10.692;2024-03-17T10:19:06;4.60;;;2.83;;
6651;SDS011;3362;50.892;10.692;2024-03-17T10:21:32;4.47;;;2.55;;
6651;SDS011;3362;50.892;10.692;2024-03-17T10:24:11;3.72;;;2.85;;
6651;SDS011;3362;50.892;10.692;2024-03-17T10:29:04;3.80;;;2.75;;
6651;SDS011;3362;50.892;10.692;2024-03-17T10:31:30;2.92;;;2.25;;
6651;SDS011;3362;50.892;10.692;2024-03-17T10:34:03;3.92;;;3.10;;
6651;SDS011;3362;50.892;10.692;2024-03-17T10:36:29;9.38;;;3.60;;
6651;SDS011;3362;50.892;10.692;2024-03-17T10:38:55;3.58;;;2.80;;
6651;SDS011;3362;50.892;10.692;2024-03-17T10:41:21;3.88;;;2.78;;
6651;SDS011;3362;50.892;10.692;2024-03-17T10:43:49;5.20;;;3.28;;
6651;SDS011;3362;50.892;10.692;2024-03-17T10:46:15;3.47;;;2.88;;
6651;SDS011;3362;50.892;10.692;2024-03-17T10:48:42;4.25;;;2.50;;
6651;SDS011;3362;50.892;10.692;2024-03-17T10:51:13;6.13;;;2.97;;
6651;SDS011;3362;50.892;10.692;2024-03-17T10:53:42;4.90;;;2.40;;
6651;SDS011;3362;50.892;10.692;2024-03-17T10:56:11;3.95;;;3.10;;
6651;SDS011;3362;50.892;10.692;2024-03-17T10:58:39;4.00;;;2.50;;
6651;SDS011;3362;50.892;10.692;2024-03-17T11:01:11;5.50;;;2.55;;
6651;SDS011;3362;50.892;10.692;2024-03-17T11:03:39;3.28;;;2.63;;
6651;SDS011;3362;50.892;10.692;2024-03-17T11:06:05;2.97;;;2.78;;
6651;SDS011;3362;50.892;10.692;2024-03-17T11:08:33;5.57;;;2.45;;
6651;SDS011;3362;50.892;10.692;2024-03-17T11:11:00;3.42;;;3.03;;
6651;SDS011;3362;50.892;10.692;2024-03-17T11:15:52;2.95;;;2.20;;
6651;SDS011;3362;50.892;10.692;2024-03-17T11:23:28;5.40;;;3.03;;
6651;SDS011;3362;50.892;10.692;2024-03-17T11:25:54;4.80;;;3.78;;
6651;SDS011;3362;50.892;10.692;2024-03-17T11:31:05;4.07;;;3.25;;
6651;SDS011;3362;50.892;10.692;2024-03-17T11:38:58;5.40;;;2.92;;
6651;SDS011;3362;50.892;10.692;2024-03-17T11:41:39;2.95;;;2.63;;
6651;SDS011;3362;50.892;10.692;2024-03-17T11:46:44;4.68;;;3.28;;
6651;SDS011;3362;50.892;10.692;2024-03-17T11:49:18;3.25;;;2.95;;
6651;SDS011;3362;50.892;10.692;2024-03-17T11:51:43;8.55;;;3.40;;
6651;SDS011;3362;50.892;10.692;2024-03-17T11:54:14;6.68;;;3.45;;
6651;SDS011;3362;50.892;10.692;2024-03-17T11:56:43;6.28;;;3.63;;
6651;SDS011;3362;50.892;10.692;2024-03-17T11:59:09;4.75;;;3.30;;
6651;SDS011;3362;50.892;10.692;2024-03-17T12:01:36;4.38;;;2.72;;
6651;SDS011;3362;50.892;10.692;2024-03-17T12:04:04;4.57;;;3.05;;
6651;SDS011;3362;50.892;10.692;2024-03-17T12:06:30;4.53;;;3.28;;
6651;SDS011;3362;50.892;10.692;2024-03-17T12:11:41;4.97;;;3.13;;
6651;SDS011;3362;50.892;10.692;2024-03-17T12:14:14;6.63;;;3.55;;
6651;SDS011;3362;50.892;10.692;2024-03-17T12:16:46;4.72;;;3.40;;
6651;SDS011;3362;50.892;10.692;2024-03-17T12:19:13;5.85;;;3.92;;
6651;SDS011;3362;50.892;10.692;2024-03-17T12:21:40;5.43;;;3.70;;
6651;SDS011;3362;50.892;10.692;2024-03-17T12:24:11;4.07;;;2.83;;
6651;SDS011;3362;50.892;10.692;2024-03-17T12:26:38;5.43;;;3.25;;
6651;SDS011;3362;50.892;10.692;2024-03-17T12:29:05;4.25;;;3.03;;
6651;SDS011;3362;50.892;10.692;2024-03-17T12:31:30;3.77;;;3.00;;
6651;SDS011;3362;50.892;10.692;2024-03-17T12:33:56;4.07;;;2.65;;
6651;SDS011;3362;50.892;10.692;2024-03-17T12:36:21;6.70;;;3.42;;
6651;SDS011;3362;50.892;10.692;2024-03-17T12:38:49;5.38;;;2.85;;
6651;SDS011;3362;50.892;10.692;2024-03-17T12:41:17;3.93;;;3.20;;
6651;SDS011;3362;50.892;10.692;2024-03-17T12:43:49;6.75;;;3.63;;
6651;SDS011;3362;50.892;10.692;2024-03-17T12:46:14;5.43;;;3.10;;
6651;SDS011;3362;50.892;10.692;2024-03-17T12:48:40;4.40;;;3.45;;
6651;SDS011;3362;50.892;10.692;2024-03-17T12:51:12;6.15;;;3.58;;
6651;SDS011;3362;50.892;10.692;2024-03-17T12:53:39;5.22;;;3.50;;
6651;SDS011;3362;50.892;10.692;2024-03-17T12:56:04;5.37;;;3.77;;
6651;SDS011;3362;50.892;10.692;2024-03-17T12:58:48;4.88;;;3.60;;
6651;SDS011;3362;50.892;10.692;2024-03-17T13:01:32;5.72;;;3.65;;
6651;SDS011;3362;50.892;10.692;2024-03-17T13:04:04;4.55;;;3.03;;
6651;SDS011;3362;50.892;10.692;2024-03-17T13:06:32;6.97;;;3.40;;
6651;SDS011;3362;50.892;10.692;2024-03-17T13:08:58;6.05;;;3.17;;
6651;SDS011;3362;50.892;10.692;2024-03-17T13:11:25;5.57;;;3.40;;
6651;SDS011;3362;50.892;10.692;2024-03-17T13:13:53;6.78;;;3.40;;
6651;SDS011;3362;50.892;10.692;2024-03-17T13:16:19;4.47;;;3.13;;
6651;SDS011;3362;50.892;10.692;2024-03-17T13:18:46;4.35;;;3.20;;
6651;SDS011;3362;50.892;10.692;2024-03-17T13:21:12;6.95;;;3.80;;
6651;SDS011;3362;50.892;10.692;2024-03-17T13:23:38;5.03;;;3.33;;
6651;SDS011;3362;50.892;10.692;2024-03-17T13:26:04;4.18;;;3.08;;
6651;SDS011;3362;50.892;10.692;2024-03-17T13:28:31;4.28;;;3.13;;
6651;SDS011;3362;50.892;10.692;2024-03-17T13:30:57;3.47;;;3.08;;
6651;SDS011;3362;50.892;10.692;2024-03-17T13:33:24;4.20;;;3.15;;
6651;SDS011;3362;50.892;10.692;2024-03-17T13:35:50;6.03;;;3.15;;
6651;SDS011;3362;50.892;10.692;2024-03-17T13:38:16;4.03;;;2.90;;
6651;SDS011;3362;50.892;10.692;2024-03-17T13:40:42;5.20;;;3.10;;
6651;SDS011;3362;50.892;10.692;2024-03-17T13:43:08;4.50;;;3.28;;
6651;SDS011;3362;50.892;10.692;2024-03-17T13:45:41;4.88;;;2.92;;
6651;SDS011;3362;50.892;10.692;2024-03-17T13:48:07;4.40;;;3.40;;
6651;SDS011;3362;50.892;10.692;2024-03-17T13:50:35;4.53;;;2.95;;
6651;SDS011;3362;50.892;10.692;2024-03-17T13:53:02;4.38;;;3.47;;
6651;SDS011;3362;50.892;10.692;2024-03-17T13:55:29;3.20;;;2.63;;
6651;SDS011;3362;50.892;10.692;2024-03-17T13:57:55;5.93;;;3.65;;
6651;SDS011;3362;50.892;10.692;2024-03-17T14:00:22;3.67;;;2.65;;
6651;SDS011;3362;50.892;10.692;2024-03-17T14:02:49;4.13;;;2.97;;
6651;SDS011;3362;50.892;10.692;2024-03-17T14:05:16;5.18;;;3.40;;
6651;SDS011;3362;50.892;10.692;2024-03-17T14:07:42;6.75;;;3.63;;
6651;SDS011;3362;50.892;10.692;2024-03-17T14:10:09;5.00;;;2.97;;
6651;SDS011;3362;50.892;10.692;2024-03-17T14:12:36;3.58;;;2.92;;
6651;SDS011;3362;50.892;10.692;2024-03-17T14:15:06;3.95;;;3.30;;
6651;SDS011;3362;50.892;10.692;2024-03-17T14:17:35;4.22;;;3.53;;
6651;SDS011;3362;50.892;10.692;2024-03-17T14:20:01;5.57;;;2.88;;
6651;SDS011;3362;50.892;10.692;2024-03-17T14:22:29;4.28;;;3.30;;
6651;SDS011;3362;50.892;10.692;2024-03-17T14:24:55;3.70;;;3.10;;
6651;SDS011;3362;50.892;10.692;2024-03-17T14:27:21;4.85;;;3.28;;
6651;SDS011;3362;50.892;10.692;2024-03-17T14:29:47;5.97;;;3.42;;
6651;SDS011;3362;50.892;10.692;2024-03-17T14:34:40;5.95;;;2.95;;
6651;SDS011;3362;50.892;10.692;2024-03-17T14:39:32;7.85;;;4.47;;
6651;SDS011;3362;50.892;10.692;2024-03-17T14:41:58;4.35;;;3.38;;
6651;SDS011;3362;50.892;10.692;2024-03-17T14:46:51;4.43;;;3.20;;
6651;SDS011;3362;50.892;10.692;2024-03-17T14:51:43;3.28;;;2.35;;
6651;SDS011;3362;50.892;10.692;2024-03-17T14:54:09;3.60;;;2.88;;
6651;SDS011;3362;50.892;10.692;2024-03-17T14:56:36;4.63;;;3.35;;
6651;SDS011;3362;50.892;10.692;2024-03-17T14:59:02;5.00;;;3.60;;
6651;SDS011;3362;50.892;10.692;2024-03-17T15:01:30;4.63;;;3.15;;
6651;SDS011;3362;50.892;10.692;2024-03-17T15:06:22;4.05;;;3.20;;
6651;SDS011;3362;50.892;10.692;2024-03-17T15:08:50;4.18;;;3.35;;
6651;SDS011;3362;50.892;10.692;2024-03-17T15:11:16;5.45;;;3.33;;
6651;SDS011;3362;50.892;10.692;2024-03-17T15:13:43;4.53;;;2.72;;
6651;SDS011;3362;50.892;10.692;2024-03-17T15:16:10;5.60;;;3.13;;
6651;SDS011;3362;50.892;10.692;2024-03-17T15:18:36;3.53;;;2.88;;
6651;SDS011;3362;50.892;10.692;2024-03-17T15:21:03;3.55;;;2.80;;
6651;SDS011;3362;50.892;10.692;2024-03-17T15:23:30;6.07;;;3.05;;
6651;SDS011;3362;50.892;10.692;2024-03-17T15:26:03;6.38;;;3.40;;
6651;SDS011;3362;50.892;10.692;2024-03-17T15:28:33;3.38;;;2.45;;
6651;SDS011;3362;50.892;10.692;2024-03-17T15:31:01;6.72;;;2.60;;
6651;SDS011;3362;50.892;10.692;2024-03-17T15:33:27;5.88;;;3.53;;
6651;SDS011;3362;50.892;10.692;2024-03-17T15:35:53;4.78;;;3.08;;
6651;SDS011;3362;50.892;10.692;2024-03-17T15:38:19;5.35;;;4.20;;
6651;SDS011;3362;50.892;10.692;2024-03-17T15:40:47;5.45;;;3.97;;
6651;SDS011;3362;50.892;10.692;2024-03-17T15:43:13;6.22;;;3.60;;
6651;SDS011;3362;50.892;10.692;2024-03-17T15:45:39;6.15;;;4.47;;
6651;SDS011;3362;50.892;10.692;2024-03-17T15:48:07;7.65;;;4.20;;
6651;SDS011;3362;50.892;10.692;2024-03-17T15:50:33;5.97;;;4.38;;
6651;SDS011;3362;50.892;10.692;2024-03-17T15:53:00;4.80;;;3.58;;
6651;SDS011;3362;50.892;10.692;2024-03-17T15:55:26;5.20;;;3.42;;
6651;SDS011;3362;50.892;10.692;2024-03-17T15:57:52;9.77;;;4.32;;
6651;SDS011;3362;50.892;10.692;2024-03-17T16:02:45;4.63;;;3.28;;
6651;SDS011;3362;50.892;10.692;2024-03-17T16:05:13;6.90;;;3.80;;
6651;SDS011;3362;50.892;10.692;2024-03-17T16:07:40;6.63;;;5.20;;
6651;SDS011;3362;50.892;10.692;2024-03-17T16:10:06;5.53;;;3.72;;
6651;SDS011;3362;50.892;10.692;2024-03-17T16:12:34;6.43;;;3.83;;
6651;SDS011;3362;50.892;10.692;2024-03-17T16:15:01;5.07;;;3.17;;